Time,TemperatureF,DewpointF,PressureIn,WindDirection,WindDirectionDegrees,WindSpeedMPH,WindSpeedGustMPH,Humidity,HourlyPrecipIn,Conditions,Clouds,dailyrainin,SolarRadiationWatts/m^2,SoftwareType,DateUTC
2013-03-11 00:05:00,43.7,8.0,30.20,WNW,296,22.0,-999.0,23,-99.99,,,0.00,0,weatherlink.com 1.10,2013-03-11 06:05:00,
2013-03-11 00:20:00,44.3,7.0,30.19,WNW,290,28.0,-999.0,22,-99.99,,,0.00,0,weatherlink.com 1.10,2013-03-11 06:20:00,
2013-03-11 00:35:00,44.0,9.0,30.18,WNW,284,24.0,-999.0,24,-99.99,,,0.00,0,weatherlink.com 1.10,2013-03-11 06:35:00,
2013-03-11 00:50:00,43.7,12.0,30.17,WNW,296,35.0,-999.0,28,-99.99,,,0.00,0,weatherlink.com 1.10,2013-03-11 06:50:00,
2013-03-11 01:05:00,44.2,12.0,30.15,West,277,44.0,-999.0,27,-99.99,,,0.00,0,weatherlink.com 1.10,2013-03-11 07:05:00,
2013-03-11 01:20:00,43.4,11.0,30.16,WNW,283,27.0,-999.0,27,-99.99,,,0.00,0,weatherlink.com 1.10,2013-03-11 07:20:00,
2013-03-11 01:35:00,42.9,12.0,30.15,WNW,284,33.0,-999.0,28,-99.99,,,0.00,0,weatherlink.com 1.10,2013-03-11 07:35:00,
2013-03-11 01:50:00,43.1,13.0,30.15,NW,310,26.0,-999.0,29,-99.99,,,0.00,0,weatherlink.com 1.10,2013-03-11 07:50:00,
2013-03-11 02:05:00,42.5,12.0,30.15,WNW,298,16.0,-999.0,29,-99.99,,,0.00,0,weatherlink.com 1.10,2013-03-11 08:05:00,
2013-03-11 02:35:00,43.1,13.0,30.13,NW,309,30.0,-999.0,29,-99.99,,,0.00,0,weatherlink.com 1.10,2013-03-11 08:35:00,
2013-03-11 02:50:00,43.5,14.0,30.12,NW,311,28.0,-999.0,30,-99.99,,,0.00,0,weatherlink.com 1.10,2013-03-11 08:50:00,
2013-03-11 03:05:00,43.7,14.0,30.13,WNW,302,23.0,-999.0,30,-99.99,,,0.00,0,weatherlink.com 1.10,2013-03-11 09:05:00,
2013-03-11 03:20:00,44.0,13.0,30.15,NW,307,22.0,-999.0,28,-99.99,,,0.00,0,weatherlink.com 1.10,2013-03-11 09:20:00,
2013-03-11 03:35:00,43.4,12.0,30.13,WNW,294,27.0,-999.0,28,-99.99,,,0.00,0,weatherlink.com 1.10,2013-03-11 09:35:00,
2013-03-11 03:50:00,42.8,12.0,30.11,NW,306,35.0,-999.0,29,-99.99,,,0.00,0,weatherlink.com 1.10,2013-03-11 09:50:00,
2013-03-11 04:05:00,42.4,14.0,30.12,WNW,284,24.0,-999.0,31,-99.99,,,0.00,0,weatherlink.com 1.10,2013-03-11 10:05:00,
2013-03-11 04:20:00,42.4,14.0,30.12,WNW,284,28.0,-999.0,32,-99.99,,,0.00,0,weatherlink.com 1.10,2013-03-11 10:20:00,
2013-03-11 04:35:00,42.3,14.0,30.12,WNW,286,26.0,-999.0,32,-99.99,,,0.00,0,weatherlink.com 1.10,2013-03-11 10:35:00,
2013-03-11 04:50:00,42.3,14.0,30.14,WNW,296,18.0,-999.0,32,-99.99,,,0.00,0,weatherlink.com 1.10,2013-03-11 10:50:00,
2013-03-11 05:05:00,42.0,15.0,30.15,NW,315,16.0,-999.0,33,-99.99,,,0.00,0,weatherlink.com 1.10,2013-03-11 11:05:00,
2013-03-11 05:20:00,41.1,15.0,30.15,WNW,282,16.0,-999.0,35,-99.99,,,0.00,0,weatherlink.com 1.10,2013-03-11 11:20:00,
2013-03-11 05:35:00,40.8,16.0,30.14,WNW,300,17.0,-999.0,36,-99.99,,,0.00,0,weatherlink.com 1.10,2013-03-11 11:35:00,
2013-03-11 05:50:00,41.2,17.0,30.14,WNW,286,18.0,-999.0,37,-99.99,,,0.00,0,weatherlink.com 1.10,2013-03-11 11:50:00,
2013-03-11 06:05:00,41.2,17.0,30.14,WNW,294,14.0,-999.0,38,-99.99,,,0.00,0,weatherlink.com 1.10,2013-03-11 12:05:00,
2013-03-11 06:20:00,40.9,18.0,30.13,WNW,302,11.0,-999.0,39,-99.99,,,0.00,0,weatherlink.com 1.10,2013-03-11 12:20:00,
2013-03-11 06:35:00,40.2,18.0,30.14,NW,308,7.0,-999.0,41,-99.99,,,0.00,0,weatherlink.com 1.10,2013-03-11 12:35:00,
2013-03-11 06:50:00,39.4,18.0,30.14,WNW,290,8.0,-999.0,42,-99.99,,,0.00,0,weatherlink.com 1.10,2013-03-11 12:50:00,
2013-03-11 07:05:00,39.3,18.0,30.14,WNW,297,12.0,-999.0,42,-99.99,,,0.00,0,weatherlink.com 1.10,2013-03-11 13:05:00,
2013-03-11 07:20:00,39.2,18.0,30.14,West,273,10.0,-999.0,42,-99.99,,,0.00,0,weatherlink.com 1.10,2013-03-11 13:20:00,
2013-03-11 07:35:00,38.8,17.0,30.14,WNW,284,9.0,-999.0,42,-99.99,,,0.00,0,weatherlink.com 1.10,2013-03-11 13:35:00,
2013-03-11 07:50:00,38.1,18.0,30.14,West,275,9.0,-999.0,44,-99.99,,,0.00,7,weatherlink.com 1.10,2013-03-11 13:50:00,
2013-03-11 08:05:00,37.5,18.0,30.14,WSW,257,6.0,-999.0,45,-99.99,,,0.00,12,weatherlink.com 1.10,2013-03-11 14:05:00,
2013-03-11 08:20:00,37.3,18.0,30.14,WSW,242,9.0,-999.0,46,-99.99,,,0.00,23,weatherlink.com 1.10,2013-03-11 14:20:00,
2013-03-11 08:36:00,37.3,18.0,30.14,SW,222,0.0,-999.0,46,-99.99,,,0.00,42,weatherlink.com 1.10,2013-03-11 14:36:00,
2013-03-11 08:51:00,37.2,18.0,30.14,SW,233,0.0,-999.0,45,-99.99,,,0.00,56,weatherlink.com 1.10,2013-03-11 14:51:00,
2013-03-11 09:06:00,37.4,19.0,30.15,West,279,0.0,-999.0,47,-99.99,,,0.00,179,weatherlink.com 1.10,2013-03-11 15:06:00,
2013-03-11 09:21:00,38.2,20.0,30.15,WNW,284,0.0,-999.0,48,-99.99,,,0.00,137,weatherlink.com 1.10,2013-03-11 15:21:00,
2013-03-11 10:06:00,40.7,19.0,30.15,North,5,9.0,-999.0,42,-99.99,,,0.00,204,weatherlink.com 1.10,2013-03-11 16:06:00,
2013-03-11 10:21:00,40.5,19.0,30.15,NE,34,16.0,-999.0,43,-99.99,,,0.00,327,weatherlink.com 1.10,2013-03-11 16:21:00,
2013-03-11 11:06:00,39.1,23.0,30.14,ENE,65,7.0,-999.0,52,-99.99,,,0.00,218,weatherlink.com 1.10,2013-03-11 17:06:00,
2013-03-11 12:06:00,38.5,23.0,30.13,East,90,8.0,-999.0,55,-99.99,,,0.00,137,weatherlink.com 1.10,2013-03-11 18:06:00,
2013-03-11 13:06:00,40.4,24.0,30.11,ESE,108,7.0,-999.0,52,-99.99,,,0.00,127,weatherlink.com 1.10,2013-03-11 19:06:00,
2013-03-11 13:21:00,40.9,24.0,30.11,SSE,155,4.0,-999.0,51,-99.99,,,0.00,149,weatherlink.com 1.10,2013-03-11 19:21:00,
2013-03-11 13:36:00,40.3,24.0,30.10,East,98,16.0,-999.0,53,-99.99,,,0.00,109,weatherlink.com 1.10,2013-03-11 19:36:00,
2013-03-11 13:51:00,40.4,24.0,30.11,ENE,71,13.0,-999.0,53,-99.99,,,0.00,285,weatherlink.com 1.10,2013-03-11 19:51:00,
2013-03-11 14:06:00,40.6,24.0,30.10,ENE,67,18.0,-999.0,53,-99.99,,,0.00,900,weatherlink.com 1.10,2013-03-11 20:06:00,
2013-03-11 14:21:00,40.4,24.0,30.07,ESE,107,18.0,-999.0,52,-99.99,,,0.00,227,weatherlink.com 1.10,2013-03-11 20:21:00,
2013-03-11 14:51:00,40.6,24.0,30.09,NE,45,2.0,-999.0,51,-99.99,,,0.00,218,weatherlink.com 1.10,2013-03-11 20:51:00,
2013-03-11 15:06:00,41.2,22.0,30.07,ENE,59,0.0,-999.0,46,-99.99,,,0.00,844,weatherlink.com 1.10,2013-03-11 21:06:00,
2013-03-11 15:21:00,45.9,24.0,30.08,NW,317,0.0,-999.0,42,-99.99,,,0.00,853,weatherlink.com 1.10,2013-03-11 21:21:00,
2013-03-11 15:36:00,46.7,20.0,30.09,NW,306,17.0,-999.0,35,-99.99,,,0.00,784,weatherlink.com 1.10,2013-03-11 21:36:00,
2013-03-11 15:51:00,50.0,12.0,30.08,WNW,296,17.0,-999.0,22,-99.99,,,0.00,668,weatherlink.com 1.10,2013-03-11 21:51:00,
2013-03-11 16:06:00,49.6,13.0,30.08,WNW,299,15.0,-999.0,23,-99.99,,,0.00,738,weatherlink.com 1.10,2013-03-11 22:06:00,
2013-03-11 16:21:00,48.8,14.0,30.09,WNW,294,17.0,-999.0,25,-99.99,,,0.00,550,weatherlink.com 1.10,2013-03-11 22:21:00,
2013-03-11 16:36:00,49.0,13.0,30.09,WNW,288,17.0,-999.0,24,-99.99,,,0.00,538,weatherlink.com 1.10,2013-03-11 22:36:00,
2013-03-11 16:51:00,48.5,15.0,30.10,WNW,298,12.0,-999.0,26,-99.99,,,0.00,462,weatherlink.com 1.10,2013-03-11 22:51:00,
2013-03-11 17:36:00,46.9,21.0,30.13,NW,306,10.0,-999.0,36,-99.99,,,0.00,295,weatherlink.com 1.10,2013-03-11 23:36:00,
2013-03-11 17:51:00,45.6,12.0,30.13,WNW,296,27.0,-999.0,26,-99.99,,,0.00,225,weatherlink.com 1.10,2013-03-11 23:51:00,
2013-03-11 18:06:00,44.3,13.0,30.14,WNW,300,15.0,-999.0,28,-99.99,,,0.00,178,weatherlink.com 1.10,2013-03-12 00:06:00,
2013-03-11 18:21:00,44.0,14.0,30.14,NW,313,7.0,-999.0,30,-99.99,,,0.00,132,weatherlink.com 1.10,2013-03-12 00:21:00,
2013-03-11 18:36:00,38.9,24.0,30.16,North,5,13.0,-999.0,55,-99.99,,,0.00,74,weatherlink.com 1.10,2013-03-12 00:36:00,
2013-03-11 18:51:00,35.9,25.0,30.17,NNE,32,10.0,-999.0,64,-99.99,,,0.00,28,weatherlink.com 1.10,2013-03-12 00:51:00,
2013-03-11 19:06:00,34.6,25.0,30.17,NE,45,13.0,-999.0,69,-99.99,,,0.00,9,weatherlink.com 1.10,2013-03-12 01:06:00,
2013-03-11 19:21:00,33.4,25.0,30.19,NNE,31,7.0,-999.0,71,-99.99,,,0.00,0,weatherlink.com 1.10,2013-03-12 01:21:00,
2013-03-11 19:37:00,31.9,24.0,30.20,NE,44,8.0,-999.0,73,-99.99,,,0.00,0,weatherlink.com 1.10,2013-03-12 01:37:00,
2013-03-11 19:52:00,31.0,24.0,30.21,NE,48,14.0,-999.0,75,-99.99,,,0.00,0,weatherlink.com 1.10,2013-03-12 01:52:00,
2013-03-11 20:07:00,30.4,24.0,30.22,ENE,57,11.0,-999.0,76,-99.99,,,0.00,0,weatherlink.com 1.10,2013-03-12 02:07:00,
2013-03-11 20:22:00,29.2,23.0,30.23,NE,49,3.0,-999.0,76,-99.99,,,0.00,0,weatherlink.com 1.10,2013-03-12 02:22:00,
2013-03-11 20:37:00,28.2,22.0,30.24,NE,53,4.0,-999.0,77,-99.99,,,0.00,0,weatherlink.com 1.10,2013-03-12 02:37:00,
2013-03-11 20:52:00,28.3,22.0,30.25,ENE,72,6.0,-999.0,77,-99.99,,,0.00,0,weatherlink.com 1.10,2013-03-12 02:52:00,
2013-03-11 21:07:00,28.4,22.0,30.25,NE,49,7.0,-999.0,77,-99.99,,,0.00,0,weatherlink.com 1.10,2013-03-12 03:07:00,
2013-03-11 21:22:00,27.5,21.0,30.27,NE,49,3.0,-999.0,77,-99.99,,,0.00,0,weatherlink.com 1.10,2013-03-12 03:22:00,
2013-03-11 21:37:00,27.1,21.0,30.29,SW,219,0.0,-999.0,79,-99.99,,,0.00,0,weatherlink.com 1.10,2013-03-12 03:37:00,
2013-03-11 21:52:00,27.7,22.0,30.31,SW,219,0.0,-999.0,80,-99.99,,,0.00,0,weatherlink.com 1.10,2013-03-12 03:52:00,
2013-03-11 22:22:00,28.0,23.0,30.32,SW,219,0.0,-999.0,80,-99.99,,,0.00,0,weatherlink.com 1.10,2013-03-12 04:22:00,
2013-03-11 22:37:00,28.0,23.0,30.33,SW,219,0.0,-999.0,82,-99.99,,,0.00,0,weatherlink.com 1.10,2013-03-12 04:37:00,
2013-03-11 22:52:00,28.0,24.0,30.33,SW,219,0.0,-999.0,83,-99.99,,,0.00,0,weatherlink.com 1.10,2013-03-12 04:52:00,
2013-03-11 23:07:00,28.1,23.0,30.34,SW,219,0.0,-999.0,81,-99.99,,,0.00,0,weatherlink.com 1.10,2013-03-12 05:07:00,
2013-03-11 23:22:00,28.0,23.0,30.34,SW,219,0.0,-999.0,81,-99.99,,,0.00,0,weatherlink.com 1.10,2013-03-12 05:22:00,
2013-03-11 23:37:00,28.1,24.0,30.36,North,355,2.0,-999.0,83,-99.99,,,0.00,0,weatherlink.com 1.10,2013-03-12 05:37:00,
2013-03-11 23:52:00,28.7,24.0,30.36,NNE,16,4.0,-999.0,81,-99.99,,,0.00,0,weatherlink.com 1.10,2013-03-12 05:52:00,